createdAt,value
2023-03-04T00:01:21.653Z,5.18
2023-03-04T00:03:52.857Z,5.15
2023-03-04T00:06:23.474Z,5.02
2023-03-04T00:08:55.425Z,4.92
2023-03-04T00:11:25.041Z,4.82
2023-03-04T00:13:54.810Z,4.88
2023-03-04T00:16:27.358Z,4.97
2023-03-04T00:18:57.755Z,5.03
2023-03-04T00:21:28.407Z,5.01
2023-03-04T00:23:57.967Z,5.00
2023-03-04T00:26:27.395Z,4.95
2023-03-04T00:28:56.708Z,4.91
2023-03-04T00:31:26.320Z,4.86
2023-03-04T00:33:55.998Z,4.83
2023-03-04T00:36:26.094Z,4.70
2023-03-04T00:38:59.335Z,4.64
2023-03-04T00:41:28.955Z,5.20
2023-03-04T00:44:00.403Z,4.97
2023-03-04T00:46:29.681Z,4.73
2023-03-04T00:49:02.250Z,5.01
2023-03-04T00:51:31.687Z,5.00
2023-03-04T00:54:02.564Z,4.96
2023-03-04T00:56:31.901Z,5.02
2023-03-04T00:59:01.460Z,5.05
2023-03-04T01:01:31.252Z,5.07
2023-03-04T01:04:00.694Z,4.92
2023-03-04T01:06:30.116Z,5.04
2023-03-04T01:08:59.454Z,5.06
2023-03-04T01:11:29.739Z,4.82
2023-03-04T01:13:59.089Z,5.07
2023-03-04T01:16:29.619Z,5.10
2023-03-04T01:18:59.064Z,5.13
2023-03-04T01:21:28.220Z,4.97
2023-03-04T01:23:58.264Z,5.01
2023-03-04T01:26:28.106Z,5.03
2023-03-04T01:29:01.056Z,5.03
2023-03-04T01:31:32.840Z,5.06
2023-03-04T01:34:02.114Z,4.90
2023-03-04T01:36:34.502Z,3.78
2023-03-04T01:39:03.851Z,5.08
2023-03-04T01:41:36.092Z,5.08
2023-03-04T01:44:07.365Z,4.73
2023-03-04T01:46:36.747Z,4.95
2023-03-04T01:49:07.581Z,4.98
2023-03-04T01:51:36.967Z,4.68
2023-03-04T01:54:06.116Z,4.76
2023-03-04T01:56:38.236Z,4.96
2023-03-04T01:59:14.608Z,4.96
2023-03-04T02:01:48.455Z,5.09
2023-03-04T02:04:18.853Z,4.91
2023-03-04T02:06:49.556Z,4.95
2023-03-04T02:09:20.100Z,4.91
2023-03-04T02:11:51.740Z,4.91
2023-03-04T02:14:25.175Z,4.89
2023-03-04T02:16:54.813Z,4.91
2023-03-04T02:19:43.344Z,4.53
2023-03-04T02:22:12.836Z,4.79
2023-03-04T02:24:47.353Z,4.82
2023-03-04T02:27:20.386Z,4.89
2023-03-04T02:29:50.898Z,4.90
2023-03-04T02:32:20.325Z,4.85
2023-03-04T02:34:52.197Z,4.94
2023-03-04T02:37:23.471Z,4.90
2023-03-04T02:39:56.060Z,4.85
2023-03-04T02:42:26.517Z,4.97
2023-03-04T02:45:01.816Z,4.96
2023-03-04T02:47:33.677Z,4.86
2023-03-04T02:50:02.808Z,4.85
2023-03-04T02:52:32.178Z,4.82
2023-03-04T02:55:01.817Z,4.82
2023-03-04T02:57:32.124Z,4.76
2023-03-04T03:00:01.685Z,4.88
2023-03-04T03:02:31.058Z,4.78
2023-03-04T03:05:01.180Z,4.71
2023-03-04T03:07:30.961Z,4.84
2023-03-04T03:10:01.176Z,4.82
2023-03-04T03:12:32.251Z,4.76
2023-03-04T03:15:01.661Z,4.85
2023-03-04T03:17:31.437Z,4.87
2023-03-04T03:20:01.056Z,4.88
2023-03-04T03:22:30.599Z,4.83
2023-03-04T03:25:00.100Z,4.84
2023-03-04T03:27:29.968Z,4.87
2023-03-04T03:30:03.180Z,4.62
2023-03-04T03:32:34.352Z,5.00
2023-03-04T03:35:04.701Z,4.92
2023-03-04T03:37:34.635Z,4.98
2023-03-04T03:40:04.564Z,4.91
2023-03-04T03:42:33.994Z,4.87
2023-03-04T03:45:05.029Z,4.89
2023-03-04T03:47:36.684Z,4.82
2023-03-04T03:50:06.905Z,4.90
2023-03-04T03:52:36.280Z,4.95
2023-03-04T03:55:08.634Z,4.94
2023-03-04T03:57:38.396Z,4.46
2023-03-04T04:00:11.037Z,4.92
2023-03-04T04:02:43.928Z,4.95
2023-03-04T04:05:14.069Z,4.98
2023-03-04T04:07:43.741Z,4.95
2023-03-04T04:10:13.738Z,4.70
2023-03-04T04:12:43.533Z,4.68
2023-03-04T04:15:14.727Z,4.93
2023-03-04T04:17:44.450Z,5.00
2023-03-04T04:20:18.708Z,4.76
2023-03-04T04:22:48.076Z,3.52
2023-03-04T04:25:18.270Z,4.81
2023-03-04T04:27:47.997Z,4.83
2023-03-04T04:30:19.275Z,4.77
2023-03-04T04:32:54.317Z,3.93
2023-03-04T04:35:23.905Z,4.87
2023-03-04T04:37:53.696Z,4.75
2023-03-04T04:40:23.050Z,4.80
2023-03-04T04:42:52.717Z,4.69
2023-03-04T04:45:24.932Z,4.86
2023-03-04T04:47:54.571Z,4.79
2023-03-04T04:50:23.933Z,4.79
2023-03-04T04:52:53.168Z,4.85
2023-03-04T04:55:22.502Z,4.73
2023-03-04T04:57:51.806Z,4.77
2023-03-04T05:00:23.264Z,4.83
2023-03-04T05:02:52.250Z,4.90
2023-03-04T05:05:21.363Z,5.05
2023-03-04T05:07:54.141Z,5.36
2023-03-04T05:10:23.836Z,5.25
2023-03-04T05:12:52.949Z,5.02
2023-03-04T05:15:23.621Z,5.36
2023-03-04T05:17:55.080Z,5.37
2023-03-04T05:20:27.343Z,5.28
2023-03-04T05:22:59.817Z,5.31
2023-03-04T05:25:29.204Z,5.18
2023-03-04T05:27:58.595Z,5.18
2023-03-04T05:30:29.653Z,5.13
2023-03-04T05:32:59.338Z,5.25
2023-03-04T05:35:29.203Z,5.16
2023-03-04T05:37:59.262Z,5.20
2023-03-04T05:40:28.737Z,4.98
2023-03-04T05:42:58.757Z,4.89
2023-03-04T05:45:29.508Z,4.69
2023-03-04T05:47:59.044Z,4.70
2023-03-04T05:50:28.452Z,4.54
2023-03-04T05:52:58.240Z,3.50
2023-03-04T05:55:30.017Z,4.77
2023-03-04T05:57:59.883Z,4.73
2023-03-04T06:00:30.520Z,4.11
2023-03-04T06:02:59.929Z,4.49
2023-03-04T06:05:29.569Z,4.90
2023-03-04T06:07:59.019Z,4.89
2023-03-04T06:10:28.376Z,4.79
2023-03-04T06:12:58.220Z,4.80
2023-03-04T06:15:29.450Z,4.86
2023-03-04T06:17:59.304Z,4.62
2023-03-04T06:20:31.068Z,3.99
2023-03-04T06:23:03.070Z,4.67
2023-03-04T06:25:34.246Z,4.76
2023-03-04T06:28:04.056Z,4.77
2023-03-04T06:30:36.144Z,4.76
2023-03-04T06:33:05.577Z,4.77
2023-03-04T06:35:34.913Z,4.47
2023-03-04T06:38:04.611Z,4.75
2023-03-04T06:40:34.148Z,4.82
2023-03-04T06:43:03.545Z,5.20
2023-03-04T06:45:33.339Z,4.96
2023-03-04T06:48:04.003Z,4.98
2023-03-04T06:50:35.382Z,4.86
2023-03-04T06:53:04.407Z,4.98
2023-03-04T06:55:33.398Z,5.00
2023-03-04T06:58:03.134Z,5.00
2023-03-04T07:00:32.499Z,5.31
2023-03-04T07:03:02.419Z,5.15
2023-03-04T07:05:32.876Z,4.78
2023-03-04T07:08:01.968Z,5.35
2023-03-04T07:10:31.355Z,5.36
2023-03-04T07:13:00.720Z,5.29
2023-03-04T07:15:30.254Z,5.14
2023-03-04T07:17:59.575Z,5.44
2023-03-04T07:20:31.596Z,4.62
2023-03-04T07:23:02.618Z,4.89
2023-03-04T07:25:32.014Z,4.84
2023-03-04T07:28:01.369Z,4.68
2023-03-04T07:30:30.841Z,4.75
2023-03-04T07:33:02.774Z,5.00
2023-03-04T07:35:32.139Z,4.97
2023-03-04T07:38:02.617Z,4.91
2023-03-04T07:40:32.211Z,5.25
2023-03-04T07:43:05.055Z,5.41
2023-03-04T07:45:34.075Z,5.40
2023-03-04T07:48:03.068Z,5.27
2023-03-04T07:50:32.272Z,5.59
2023-03-04T07:53:02.824Z,5.49
2023-03-04T07:55:32.029Z,5.77
2023-03-04T07:58:01.177Z,5.50
2023-03-04T08:00:30.326Z,5.67
2023-03-04T08:02:59.518Z,5.61
2023-03-04T08:05:28.548Z,5.63
2023-03-04T08:07:58.165Z,5.76
2023-03-04T08:10:29.086Z,5.78
2023-03-04T08:13:00.539Z,5.85
2023-03-04T08:15:33.085Z,6.13
2023-03-04T08:18:02.557Z,5.97
2023-03-04T08:20:31.659Z,5.86
2023-03-04T08:23:00.777Z,5.86
2023-03-04T08:25:31.512Z,5.79
2023-03-04T08:28:00.866Z,5.86
2023-03-04T08:30:35.553Z,6.01
2023-03-04T08:33:07.787Z,6.10
2023-03-04T08:35:39.732Z,5.91
2023-03-04T08:38:08.952Z,6.01
2023-03-04T08:40:39.830Z,6.05
2023-03-04T08:43:09.126Z,6.01
2023-03-04T08:45:38.619Z,5.96
2023-03-04T08:48:08.208Z,5.62
2023-03-04T08:50:39.573Z,5.91
2023-03-04T08:53:08.847Z,5.85
2023-03-04T08:55:41.924Z,6.13
2023-03-04T08:58:12.168Z,6.09
2023-03-04T09:00:44.787Z,6.16
2023-03-04T09:03:14.399Z,5.88
2023-03-04T09:05:43.700Z,6.26
2023-03-04T09:08:12.943Z,6.51
2023-03-04T09:10:43.874Z,6.55
2023-03-04T09:13:14.924Z,6.60
2023-03-04T09:15:47.056Z,6.67
2023-03-04T09:18:17.850Z,6.73
2023-03-04T09:20:47.738Z,6.47
2023-03-04T09:23:18.583Z,6.22
2023-03-04T09:25:49.696Z,6.72
2023-03-04T09:28:19.588Z,6.65
2023-03-04T09:30:49.280Z,6.53
2023-03-04T09:33:18.630Z,5.07
2023-03-04T09:35:48.987Z,7.22
2023-03-04T09:38:17.857Z,5.41
2023-03-04T09:40:50.568Z,6.87
2023-03-04T09:43:23.797Z,7.30
2023-03-04T09:45:54.814Z,7.25
2023-03-04T09:48:27.018Z,7.17
2023-03-04T09:51:18.771Z,7.16
2023-03-04T09:53:59.671Z,7.07
2023-03-04T09:56:31.512Z,7.03
2023-03-04T09:59:10.398Z,6.70
2023-03-04T10:01:44.870Z,6.42
2023-03-04T10:04:19.460Z,6.17
2023-03-04T10:06:54.671Z,6.37
2023-03-04T10:09:27.306Z,6.18
2023-03-04T10:12:03.724Z,6.16
2023-03-04T10:14:39.426Z,6.61
2023-03-04T10:17:15.632Z,6.83
2023-03-04T10:19:55.509Z,6.83
2023-03-04T10:22:34.070Z,7.36
2023-03-04T10:25:17.266Z,7.58
2023-03-04T10:27:55.953Z,7.92
2023-03-04T10:30:52.409Z,8.06
2023-03-04T10:33:23.835Z,8.64
2023-03-04T10:36:01.496Z,8.61
2023-03-04T10:38:34.039Z,8.21
2023-03-04T10:41:13.191Z,8.01
2023-03-04T10:43:45.343Z,8.06
2023-03-04T10:46:16.706Z,7.86
2023-03-04T10:48:47.306Z,7.67
2023-03-04T10:51:21.557Z,7.38
2023-03-04T10:53:52.992Z,7.02
2023-03-04T10:56:37.152Z,7.18
2023-03-04T10:59:34.457Z,7.23
2023-03-04T11:02:17.945Z,7.19
2023-03-04T11:04:53.582Z,7.24
2023-03-04T11:07:23.915Z,7.25
2023-03-04T11:09:53.424Z,7.40
2023-03-04T11:12:32.833Z,7.69
2023-03-04T11:15:18.625Z,7.73
2023-03-04T11:17:52.180Z,8.20
2023-03-04T11:20:32.004Z,8.72
2023-03-04T11:23:04.726Z,8.48
2023-03-04T11:25:36.646Z,8.54
2023-03-04T11:28:12.377Z,8.07
2023-03-04T11:30:47.015Z,8.46
2023-03-04T11:33:28.254Z,8.55
2023-03-04T11:36:09.890Z,8.31
2023-03-04T11:38:42.257Z,8.11
2023-03-04T11:41:14.702Z,7.89
2023-03-04T11:43:48.035Z,8.10
2023-03-04T11:46:43.493Z,7.80
2023-03-04T11:49:57.053Z,7.60
2023-03-04T11:52:40.781Z,7.30
2023-03-04T11:55:30.901Z,7.39
2023-03-04T11:58:13.756Z,6.68
2023-03-04T12:00:55.019Z,7.77
2023-03-04T12:03:46.274Z,7.86
2023-03-04T12:06:26.793Z,8.13
2023-03-04T12:09:05.019Z,8.04
2023-03-04T12:11:44.773Z,7.91
2023-03-04T12:14:29.835Z,7.99
2023-03-04T12:17:21.620Z,8.06
2023-03-04T12:20:08.289Z,8.09
2023-03-04T12:22:45.322Z,8.35
2023-03-04T12:25:38.611Z,8.34
2023-03-04T12:28:40.465Z,8.00
2023-03-04T12:31:28.975Z,6.43
2023-03-04T12:34:09.315Z,7.72
2023-03-04T12:36:49.845Z,7.29
2023-03-04T12:39:31.945Z,7.56
2023-03-04T12:42:10.767Z,7.41
2023-03-04T12:44:48.018Z,7.47
2023-03-04T12:47:32.727Z,7.49
2023-03-04T12:50:26.435Z,7.62
2023-03-04T12:53:02.224Z,7.68
2023-03-04T12:55:39.155Z,7.88
2023-03-04T12:58:18.303Z,7.68
2023-03-04T13:00:55.370Z,7.74
2023-03-04T13:03:33.454Z,7.66
2023-03-04T13:06:12.217Z,7.70
2023-03-04T13:08:54.920Z,7.97
2023-03-04T13:11:52.567Z,8.09
2023-03-04T13:14:33.450Z,7.75
2023-03-04T13:17:10.341Z,7.84
2023-03-04T13:19:53.853Z,7.85
2023-03-04T13:22:43.902Z,7.75
2023-03-04T13:25:39.081Z,7.56
2023-03-04T13:28:22.667Z,7.73
2023-03-04T13:31:20.725Z,7.67
2023-03-04T13:33:53.764Z,6.79
2023-03-04T13:36:51.434Z,7.70
2023-03-04T13:39:33.804Z,6.65
2023-03-04T13:42:26.291Z,7.51
2023-03-04T13:45:04.458Z,7.55
2023-03-04T13:47:50.488Z,7.50
2023-03-04T13:50:49.437Z,7.30
2023-03-04T13:53:31.411Z,7.73
2023-03-04T13:56:15.580Z,7.69
2023-03-04T13:58:47.649Z,7.64
2023-03-04T14:01:25.857Z,7.21
2023-03-04T14:03:55.563Z,7.69
2023-03-04T14:06:28.683Z,7.62
2023-03-04T14:08:59.559Z,7.49
2023-03-04T14:11:34.894Z,7.61
2023-03-04T14:14:09.320Z,7.63
2023-03-04T14:16:42.062Z,7.52
2023-03-04T14:19:17.647Z,7.69
2023-03-04T14:21:48.234Z,7.14
2023-03-04T14:24:20.248Z,7.71
2023-03-04T14:26:49.827Z,7.45
2023-03-04T14:29:26.387Z,6.86
2023-03-04T14:32:01.111Z,7.34
2023-03-04T14:34:33.452Z,7.25
2023-03-04T14:37:03.677Z,6.21
2023-03-04T14:39:37.229Z,7.36
2023-03-04T14:42:12.173Z,6.98
2023-03-04T14:44:49.228Z,6.97
2023-03-04T14:47:22.521Z,7.02
2023-03-04T14:49:52.076Z,6.81
2023-03-04T14:52:36.516Z,6.77
2023-03-04T14:55:21.616Z,7.10
2023-03-04T14:57:58.292Z,7.15
2023-03-04T15:00:32.492Z,7.16
2023-03-04T15:03:03.258Z,7.39
2023-03-04T15:05:34.269Z,7.16
2023-03-04T15:08:06.991Z,7.14
2023-03-04T15:10:39.543Z,7.03
2023-03-04T15:13:10.168Z,7.13
2023-03-04T15:15:43.253Z,7.09
2023-03-04T15:18:26.476Z,7.11
2023-03-04T15:20:58.091Z,6.93
2023-03-04T15:23:29.523Z,6.81
2023-03-04T15:26:00.682Z,6.80
2023-03-04T15:28:35.589Z,5.60
2023-03-04T15:31:16.754Z,6.87
2023-03-04T15:33:45.868Z,6.74
2023-03-04T15:36:17.953Z,6.78
2023-03-04T15:38:49.819Z,6.80
2023-03-04T15:41:22.788Z,6.80
2023-03-04T15:43:55.568Z,6.57
2023-03-04T15:46:28.492Z,6.42
2023-03-04T15:49:00.409Z,6.50
2023-03-04T15:51:30.138Z,5.47
2023-03-04T15:54:01.815Z,6.57
2023-03-04T15:56:33.216Z,5.26
2023-03-04T15:59:05.511Z,6.60
2023-03-04T16:01:39.215Z,4.36
2023-03-04T16:04:12.743Z,6.76
2023-03-04T16:06:43.483Z,6.77
2023-03-04T16:09:16.754Z,6.78
2023-03-04T16:11:48.045Z,6.75
2023-03-04T16:14:18.736Z,6.90
2023-03-04T16:16:50.839Z,6.73
2023-03-04T16:19:19.965Z,6.75
2023-03-04T16:21:49.543Z,6.69
2023-03-04T16:24:21.961Z,6.65
2023-03-04T16:26:52.840Z,6.62
2023-03-04T16:29:22.128Z,6.66
2023-03-04T16:31:55.393Z,6.38
2023-03-04T16:34:24.421Z,6.57
2023-03-04T16:36:54.244Z,5.55
2023-03-04T16:39:26.010Z,6.53
2023-03-04T16:41:55.722Z,6.46
2023-03-04T16:44:29.054Z,6.12
2023-03-04T16:46:59.972Z,6.19
2023-03-04T16:49:31.459Z,6.29
2023-03-04T16:52:00.795Z,6.41
2023-03-04T16:54:34.709Z,6.32
2023-03-04T16:57:04.225Z,6.03
2023-03-04T16:59:34.189Z,6.26
2023-03-04T17:02:05.156Z,6.24
2023-03-04T17:04:34.620Z,6.26
2023-03-04T17:07:05.286Z,6.40
2023-03-04T17:09:35.232Z,6.39
2023-03-04T17:12:05.914Z,6.31
2023-03-04T17:14:36.154Z,6.27
2023-03-04T17:17:08.216Z,6.14
2023-03-04T17:19:38.954Z,5.81
2023-03-04T17:22:11.099Z,6.20
2023-03-04T17:24:40.815Z,6.10
2023-03-04T17:27:13.248Z,5.68
2023-03-04T17:29:44.770Z,5.86
2023-03-04T17:32:15.678Z,6.09
2023-03-04T17:34:45.549Z,5.79
2023-03-04T17:37:15.250Z,5.85
2023-03-04T17:39:45.276Z,5.52
2023-03-04T17:42:14.794Z,5.94
2023-03-04T17:44:45.440Z,5.78
2023-03-04T17:47:16.613Z,5.98
2023-03-04T17:49:46.244Z,5.43
2023-03-04T17:52:15.418Z,5.72
2023-03-04T17:54:48.740Z,5.75
2023-03-04T17:57:22.074Z,5.64
2023-03-04T17:59:51.996Z,5.59
2023-03-04T18:02:22.873Z,5.66
2023-03-04T18:04:54.669Z,5.66
2023-03-04T18:07:24.015Z,5.67
2023-03-04T18:09:53.643Z,5.76
2023-03-04T18:12:22.992Z,5.74
2023-03-04T18:14:52.427Z,5.81
2023-03-04T18:17:23.649Z,5.66
2023-03-04T18:19:53.153Z,5.58
2023-03-04T18:22:22.678Z,4.23
2023-03-04T18:24:52.169Z,5.61
2023-03-04T18:27:21.769Z,5.53
2023-03-04T18:29:53.642Z,4.51
2023-03-04T18:32:24.838Z,5.51
2023-03-04T18:34:57.327Z,5.61
2023-03-04T18:37:27.182Z,5.53
2023-03-04T18:39:56.658Z,5.59
2023-03-04T18:42:26.262Z,5.66
2023-03-04T18:44:56.033Z,5.47
2023-03-04T18:47:27.676Z,5.53
2023-03-04T18:49:57.476Z,5.33
2023-03-04T18:52:27.068Z,5.59
2023-03-04T18:54:56.670Z,5.78
2023-03-04T18:57:30.799Z,5.73
2023-03-04T19:00:02.620Z,5.60
2023-03-04T19:02:38.571Z,5.50
2023-03-04T19:05:11.435Z,5.53
2023-03-04T19:07:40.705Z,5.60
2023-03-04T19:10:13.857Z,5.51
2023-03-04T19:12:46.458Z,5.42
2023-03-04T19:15:16.178Z,5.40
2023-03-04T19:17:46.750Z,5.32
2023-03-04T19:20:17.364Z,5.23
2023-03-04T19:22:49.045Z,5.24
2023-03-04T19:25:19.000Z,5.29
2023-03-04T19:27:48.639Z,5.16
2023-03-04T19:30:18.252Z,4.95
2023-03-04T19:32:49.234Z,5.01
2023-03-04T19:35:19.006Z,5.04
2023-03-04T19:37:48.487Z,5.06
2023-03-04T19:40:18.159Z,4.91
2023-03-04T19:42:49.410Z,4.92
2023-03-04T19:45:20.725Z,3.66
2023-03-04T19:47:51.411Z,4.89
2023-03-04T19:50:20.608Z,5.01
2023-03-04T19:52:52.484Z,5.05
2023-03-04T19:55:21.515Z,4.85
2023-03-04T19:57:50.813Z,5.01
2023-03-04T20:00:23.412Z,4.76
2023-03-04T20:02:57.061Z,4.97
2023-03-04T20:05:26.438Z,5.13
2023-03-04T20:07:58.165Z,5.24
2023-03-04T20:10:27.618Z,5.19
2023-03-04T20:13:00.101Z,5.06
2023-03-04T20:15:29.729Z,5.05
2023-03-04T20:18:01.168Z,4.99
2023-03-04T20:20:33.755Z,4.79
2023-03-04T20:23:02.920Z,4.84
2023-03-04T20:25:32.983Z,4.78
2023-03-04T20:28:03.114Z,3.40
2023-03-04T20:30:32.754Z,4.60
2023-03-04T20:33:03.245Z,4.14
2023-03-04T20:35:32.792Z,4.42
2023-03-04T20:38:02.457Z,4.33
2023-03-04T20:40:32.107Z,4.49
2023-03-04T20:43:02.484Z,4.49
2023-03-04T20:45:34.630Z,4.43
2023-03-04T20:48:05.750Z,4.28
2023-03-04T20:50:35.320Z,4.22
2023-03-04T20:53:04.348Z,4.17
2023-03-04T20:55:33.994Z,3.98
2023-03-04T20:58:07.700Z,4.01
2023-03-04T21:00:38.399Z,4.05
2023-03-04T21:03:09.057Z,4.02
2023-03-04T21:05:40.241Z,3.96
2023-03-04T21:08:13.521Z,3.92
2023-03-04T21:10:42.850Z,3.86
2023-03-04T21:13:16.811Z,3.96
2023-03-04T21:15:48.711Z,4.30
2023-03-04T21:18:19.732Z,4.15
2023-03-04T21:20:51.980Z,4.20
2023-03-04T21:23:22.409Z,4.23
2023-03-04T21:25:51.598Z,4.13
2023-03-04T21:28:20.653Z,4.04
2023-03-04T21:30:52.805Z,4.15
2023-03-04T21:33:30.128Z,4.11
2023-03-04T21:36:00.048Z,4.08
2023-03-04T21:38:29.504Z,4.11
2023-03-04T21:40:58.450Z,4.28
2023-03-04T21:43:27.957Z,4.42
2023-03-04T21:45:58.288Z,4.22
2023-03-04T21:48:28.593Z,3.97
2023-03-04T21:51:02.886Z,4.00
2023-03-04T21:53:32.561Z,4.05
2023-03-04T21:56:01.652Z,4.06
2023-03-04T21:58:30.871Z,3.94
2023-03-04T22:01:09.554Z,3.95
2023-03-04T22:03:40.760Z,4.25
2023-03-04T22:06:12.093Z,4.09
2023-03-04T22:08:42.429Z,4.10
2023-03-04T22:11:13.458Z,3.96
2023-03-04T22:13:43.773Z,4.21
2023-03-04T22:16:13.762Z,4.15
2023-03-04T22:18:44.481Z,4.09
2023-03-04T22:21:15.802Z,2.18
2023-03-04T22:23:45.841Z,4.00
2023-03-04T22:26:17.596Z,4.11
2023-03-04T22:28:47.571Z,4.11
2023-03-04T22:31:19.503Z,4.02
2023-03-04T22:33:50.681Z,4.13
2023-03-04T22:36:19.963Z,4.05
2023-03-04T22:38:52.345Z,3.89
2023-03-04T22:41:22.654Z,3.88
2023-03-04T22:43:55.350Z,3.93
2023-03-04T22:46:27.964Z,4.17
2023-03-04T22:49:01.246Z,4.28
2023-03-04T22:51:31.157Z,4.21
2023-03-04T22:54:00.922Z,4.25
2023-03-04T22:56:30.070Z,4.25
2023-03-04T22:58:59.264Z,4.26
2023-03-04T23:01:28.995Z,3.77
2023-03-04T23:03:59.556Z,4.06
2023-03-04T23:06:30.469Z,3.98
2023-03-04T23:09:01.266Z,3.93
2023-03-04T23:11:32.905Z,2.72
2023-03-04T23:14:06.492Z,3.88
2023-03-04T23:16:39.318Z,3.85
2023-03-04T23:19:14.984Z,3.58
2023-03-04T23:21:45.428Z,3.57
2023-03-04T23:24:15.582Z,3.52
2023-03-04T23:26:45.403Z,3.41
2023-03-04T23:29:16.665Z,3.39
2023-03-04T23:31:46.095Z,3.03
2023-03-04T23:34:16.798Z,3.38
2023-03-04T23:36:46.269Z,3.51
2023-03-04T23:39:15.648Z,3.31
2023-03-04T23:41:45.246Z,3.63
2023-03-04T23:44:14.710Z,3.31
2023-03-04T23:46:44.417Z,2.39
2023-03-04T23:49:17.135Z,3.51
2023-03-04T23:51:48.641Z,2.60
2023-03-04T23:54:18.626Z,3.47
2023-03-04T23:56:48.458Z,3.37
2023-03-04T23:59:18.132Z,3.44
